Time;durP1;ratioP1;P1;durP2;ratioP2;P2;SDS_P1;SDS_P2;PMS_P1;PMS_P2;Temp;Humidity;BMP_temperature;BMP_pressure;BME280_temperature;BME280_humidity;BME280_pressure;Samples;Min_cycle;Max_cycle;Signal;HPM_P1;HPM_P2
2021/09/28 00:02:22;;;;;;;8.82;6.25;;;;;;;25.36;43.65;95132.50;5368748;22;20065;-68
2021/09/28 00:04:48;;;;;;;9.02;6.55;;;;;;;25.34;44.28;95131.56;5004683;28;20045;-70
2021/09/28 00:07:15;;;;;;;8.75;6.22;;;;;;;25.32;44.45;95134.09;5004323;28;20420;-68
2021/09/28 00:09:40;;;;;;;7.70;5.90;;;;;;;25.36;43.83;95129.03;5005940;28;20788;-68
2021/09/28 00:12:06;;;;;;;10.82;7.00;;;;;;;25.25;44.35;95112.81;5006322;28;20034;-69
2021/09/28 00:14:31;;;;;;;8.88;6.25;;;;;;;25.26;44.11;95114.31;5004875;28;20017;-68
2021/09/28 00:16:57;;;;;;;8.93;6.00;;;;;;;25.29;43.57;95113.25;5004631;28;20104;-69
2021/09/28 00:19:22;;;;;;;10.48;6.35;;;;;;;25.36;43.59;95129.03;5004703;28;20044;-69
2021/09/28 00:21:48;;;;;;;9.13;5.75;;;;;;;25.35;43.77;95135.75;5006296;28;20040;-68
2021/09/28 00:24:14;;;;;;;8.25;6.03;;;;;;;25.35;43.75;95124.81;5005257;28;20075;-69
2021/09/28 00:26:40;;;;;;;8.90;6.60;;;;;;;25.25;44.48;95112.81;5004119;28;20061;-69
2021/09/28 00:29:05;;;;;;;10.15;6.45;;;;;;;25.35;43.71;95122.09;5005153;28;20799;-69
2021/09/28 00:31:30;;;;;;;7.78;6.22;;;;;;;25.32;44.37;95117.69;5005930;28;20508;-69
2021/09/28 00:33:56;;;;;;;9.45;6.00;;;;;;;25.30;43.92;95111.97;4988307;28;20030;-69
2021/09/28 00:36:23;;;;;;;10.63;6.65;;;;;;;25.11;43.87;95081.22;5003577;28;20480;-69
2021/09/28 00:38:50;;;;;;;9.82;6.35;;;;;;;25.31;43.86;95111.47;5004507;28;20692;-69
2021/09/28 00:41:15;;;;;;;8.63;6.22;;;;;;;25.32;43.86;95123.16;5006219;28;20448;-69
2021/09/28 00:44:06;;;;;;;8.38;5.85;;;;;;;25.31;43.91;95105.28;5005882;28;20030;-69
2021/09/28 00:46:32;;;;;;;9.75;6.55;;;;;;;25.24;44.53;95105.84;5004535;28;20034;-69
2021/09/28 00:48:58;;;;;;;10.15;6.43;;;;;;;25.08;43.99;95078.75;5004538;28;20026;-69
2021/09/28 00:51:23;;;;;;;7.85;5.72;;;;;;;25.34;43.75;95109.69;5004883;28;20029;-69
2021/09/28 00:53:50;;;;;;;8.32;6.10;;;;;;;25.29;44.08;95102.31;5004676;28;20028;-69
2021/09/28 00:56:16;;;;;;;8.73;6.45;;;;;;;25.30;44.23;95103.78;5004458;28;20083;-69
2021/09/28 00:58:41;;;;;;;8.25;5.88;;;;;;;25.32;44.66;95106.75;5005432;28;20034;-69
2021/09/28 01:01:10;;;;;;;9.57;6.75;;;;;;;25.32;43.86;95101.28;5004376;28;20018;-69
2021/09/28 01:03:36;;;;;;;9.10;5.63;;;;;;;25.29;43.82;95096.09;5020873;28;20042;-69
2021/09/28 01:06:01;;;;;;;7.50;5.75;;;;;;;25.28;44.38;95111.78;5005589;28;20026;-69
2021/09/28 01:08:27;;;;;;;8.15;5.95;;;;;;;25.33;44.31;95113.69;5005692;28;20026;-69
2021/09/28 01:10:52;;;;;;;9.57;6.45;;;;;;;25.29;44.70;95112.50;5005406;28;20033;-69
2021/09/28 01:13:18;;;;;;;9.40;6.65;;;;;;;25.28;44.57;95106.31;5005668;28;20022;-69
2021/09/28 01:16:07;;;;;;;7.85;6.18;;;;;;;25.28;44.22;95111.78;5005730;28;20025;-69
2021/09/28 01:18:34;;;;;;;11.00;6.90;;;;;;;25.28;44.20;95111.78;5002840;28;20121;-69
2021/09/28 01:21:00;;;;;;;9.50;5.88;;;;;;;25.29;44.57;95107.78;5005696;28;20025;-69
2021/09/28 01:23:26;;;;;;;9.25;6.13;;;;;;;25.29;44.31;95105.06;5005742;28;20034;-69
2021/09/28 01:25:51;;;;;;;8.23;5.82;;;;;;;25.13;44.02;95084.16;5005470;28;20488;-69
2021/09/28 01:28:17;;;;;;;8.45;6.20;;;;;;;25.27;44.10;95104.81;5005364;28;20701;-69
2021/09/28 01:30:42;;;;;;;8.10;6.10;;;;;;;25.28;44.78;95095.38;5020464;28;20600;-69
2021/09/28 01:33:08;;;;;;;9.85;6.25;;;;;;;25.21;44.03;95095.97;5006247;28;20144;-69
2021/09/28 01:35:35;;;;;;;7.40;5.43;;;;;;;25.27;44.74;95091.16;5005674;28;20098;-69
2021/09/28 01:38:00;;;;;;;7.85;5.70;;;;;;;25.27;44.55;95093.88;5005355;28;20038;-69
2021/09/28 01:40:26;;;;;;;8.63;5.85;;;;;;;25.27;44.79;95098.63;5005531;28;20057;-69
2021/09/28 01:42:51;;;;;;;8.50;6.30;;;;;;;25.27;44.13;95104.09;5008949;28;20720;-68
2021/09/28 01:45:16;;;;;;;8.63;6.03;;;;;;;25.25;44.38;95101.88;5008626;28;20025;-69
2021/09/28 01:47:42;;;;;;;8.88;5.95;;;;;;;25.24;44.74;95094.94;5008649;28;20045;-69
2021/09/28 01:50:08;;;;;;;7.43;5.68;;;;;;;25.26;44.19;95100.63;5008686;28;20029;-69
2021/09/28 01:52:37;;;;;;;8.88;6.00;;;;;;;25.13;44.80;95086.91;5008821;28;20057;-69
2021/09/28 01:55:03;;;;;;;9.05;5.93;;;;;;;25.25;44.86;95110.06;5007551;28;20506;-69
2021/09/28 01:57:29;;;;;;;9.13;6.05;;;;;;;25.25;44.19;95129.22;5008546;28;20376;-69
2021/09/28 01:59:54;;;;;;;9.32;5.70;;;;;;;25.27;44.38;95131.44;5008304;28;20041;-69
2021/09/28 02:02:20;;;;;;;9.05;6.05;;;;;;;25.26;44.59;95125.22;5008499;28;20034;-69
2021/09/28 02:04:45;;;;;;;8.40;6.47;;;;;;;25.13;44.53;95103.28;5008753;28;20049;-69
2021/09/28 02:07:11;;;;;;;8.63;6.25;;;;;;;25.19;44.33;95120.34;5008212;28;20029;-69
2021/09/28 02:09:36;;;;;;;7.25;5.97;;;;;;;25.20;44.54;95127.31;5008820;28;20036;-69
2021/09/28 02:12:02;;;;;;;7.65;5.95;;;;;;;25.23;44.38;95136.44;5008589;28;20488;-69
2021/09/28 02:14:28;;;;;;;8.15;5.80;;;;;;;25.21;44.25;95123.28;5008268;28;20065;-69
2021/09/28 02:16:54;;;;;;;8.60;6.03;;;;;;;25.22;44.48;95130.25;5007948;28;20970;-68
2021/09/28 02:19:20;;;;;;;6.97;5.82;;;;;;;25.21;44.80;95136.97;5008463;28;20034;-69
2021/09/28 02:21:45;;;;;;;7.03;5.75;;;;;;;25.03;44.45;95112.38;5008335;28;20131;-69
2021/09/28 02:24:11;;;;;;;6.55;5.35;;;;;;;25.20;44.66;95132.78;5008261;28;20028;-69
2021/09/28 02:26:37;;;;;;;7.90;5.78;;;;;;;25.23;44.47;95131.75;5007961;28;20412;-69
2021/09/28 02:29:03;;;;;;;7.25;5.53;;;;;;;25.22;44.31;95124.78;5007673;28;20065;-69
2021/09/28 02:31:29;;;;;;;8.63;5.50;;;;;;;25.21;44.30;95115.09;5007905;28;20040;-69
2021/09/28 02:33:54;;;;;;;7.63;5.40;;;;;;;25.23;44.31;95109.09;5007700;28;20026;-69
2021/09/28 02:36:20;;;;;;;7.68;5.50;;;;;;;25.21;44.76;95117.84;5007840;28;20423;-69
2021/09/28 02:38:45;;;;;;;9.00;5.85;;;;;;;25.20;45.08;95132.78;5007782;28;20072;-69
2021/09/28 02:41:10;;;;;;;9.02;5.63;;;;;;;25.15;44.40;95114.44;5007653;28;20026;-69
2021/09/28 02:43:36;;;;;;;8.65;5.57;;;;;;;25.20;45.16;95116.38;5007758;28;20034;-69
2021/09/28 02:46:01;;;;;;;7.35;5.88;;;;;;;25.07;45.09;95097.16;5007637;28;20037;-69
2021/09/28 02:48:27;;;;;;;7.38;5.70;;;;;;;25.06;45.15;95101.16;5007593;28;20049;-69
2021/09/28 02:50:52;;;;;;;8.63;5.43;;;;;;;25.17;44.41;95111.94;5007135;28;20022;-69
2021/09/28 02:53:18;;;;;;;7.47;5.20;;;;;;;25.18;45.22;95121.59;5007149;28;20029;-69
2021/09/28 02:55:44;;;;;;;7.75;5.60;;;;;;;25.13;44.57;95122.41;5007913;28;20037;-69
2021/09/28 02:58:09;;;;;;;6.97;5.30;;;;;;;25.04;44.58;95103.66;5007251;28;20018;-69
2021/09/28 03:00:35;;;;;;;7.90;5.82;;;;;;;25.18;45.24;95129.78;5006088;28;20022;-69
2021/09/28 03:03:00;;;;;;;7.65;5.30;;;;;;;25.14;44.96;95126.66;5007630;28;20050;-69
2021/09/28 03:05:26;;;;;;;6.85;5.15;;;;;;;25.19;44.79;95136.75;5007426;28;20030;-69
2021/09/28 03:07:51;;;;;;;7.00;5.43;;;;;;;25.17;44.57;95136.53;5005635;28;20021;-68
2021/09/28 03:10:16;;;;;;;7.00;5.13;;;;;;;25.16;45.27;95143.25;5006927;28;20084;-69
2021/09/28 03:12:42;;;;;;;8.32;5.78;;;;;;;25.16;45.14;95137.78;5007195;28;20080;-69
2021/09/28 03:15:08;;;;;;;6.10;4.88;;;;;;;25.19;44.95;95136.75;5007218;28;20284;-69
2021/09/28 03:17:33;;;;;;;10.10;5.50;;;;;;;25.19;44.86;95136.75;5007047;28;20509;-69
2021/09/28 03:19:59;;;;;;;6.63;5.30;;;;;;;25.05;44.49;95120.78;5007039;28;20558;-69
2021/09/28 03:22:25;;;;;;;9.40;6.53;;;;;;;25.16;44.90;95129.59;5005635;28;20036;-69
2021/09/28 03:24:50;;;;;;;8.13;5.63;;;;;;;25.19;44.55;95131.28;5007238;28;20081;-69
2021/09/28 03:27:16;;;;;;;7.10;5.40;;;;;;;25.17;44.48;95122.88;5006571;28;20076;-69
2021/09/28 03:29:41;;;;;;;7.75;5.47;;;;;;;25.17;45.38;95128.34;5007032;28;20038;-69
2021/09/28 03:32:07;;;;;;;7.50;5.38;;;;;;;25.14;45.14;95112.97;5006687;28;20030;-68
2021/09/28 03:34:33;;;;;;;6.85;5.05;;;;;;;25.15;45.22;95125.38;5006776;28;20033;-69
2021/09/28 03:36:58;;;;;;;6.30;4.75;;;;;;;25.12;45.34;95120.94;5006673;28;20032;-69
2021/09/28 03:39:24;;;;;;;7.72;5.78;;;;;;;25.16;44.53;95129.59;5005673;28;20392;-69
2021/09/28 03:41:49;;;;;;;6.50;4.88;;;;;;;25.16;45.02;95132.31;5006426;28;20029;-69
2021/09/28 03:44:15;;;;;;;6.57;4.93;;;;;;;25.15;45.38;95124.63;5006874;28;20025;-69
2021/09/28 03:46:41;;;;;;;5.53;4.72;;;;;;;25.10;45.32;95123.47;5004337;28;20034;-69
2021/09/28 03:49:06;;;;;;;398.45;218.13;;;;;;;25.14;44.85;95136.81;5005897;28;20120;-69
2021/09/28 03:51:32;;;;;;;296.05;156.18;;;;;;;25.17;45.31;95149.44;5003723;28;20814;-73
2021/09/28 03:53:57;;;;;;;215.15;125.65;;;;;;;25.16;45.43;95148.72;4988120;28;20053;-76
2021/09/28 03:56:23;;;;;;;245.32;136.18;;;;;;;25.22;45.06;95152.13;5021153;28;20749;-73
2021/09/28 03:58:49;;;;;;;149.23;99.90;;;;;;;25.20;45.65;95143.72;5006276;28;20149;-74
2021/09/28 04:01:14;;;;;;;119.78;87.05;;;;;;;25.26;45.74;95157.28;5005259;28;20062;-73
2021/09/28 04:03:41;;;;;;;100.43;78.68;;;;;;;25.30;45.16;95157.72;5003710;28;20061;-72
2021/09/28 04:06:07;;;;;;;110.50;82.40;;;;;;;25.31;45.65;95154.47;5003883;28;20491;-72
2021/09/28 04:08:32;;;;;;;97.93;76.63;;;;;;;25.39;45.41;95149.88;5020282;28;20026;-73
2021/09/28 04:10:57;;;;;;;80.15;67.95;;;;;;;25.42;44.85;95144.09;5005091;28;20392;-75
2021/09/28 04:13:23;;;;;;;67.55;59.85;;;;;;;25.48;45.45;95146.75;4994999;28;20437;-75
2021/09/28 04:15:48;;;;;;;135.15;94.15;;;;;;;25.57;44.83;95149.13;5003432;28;20021;-73
2021/09/28 04:18:14;;;;;;;135.52;94.93;;;;;;;25.64;44.52;95137.59;4997363;28;20021;-73
2021/09/28 04:20:43;;;;;;;131.15;89.82;;;;;;;25.71;44.90;95143.22;5001927;28;20029;-72
2021/09/28 04:23:09;;;;;;;109.32;82.07;;;;;;;25.80;44.59;95140.09;5002589;28;20038;-73
2021/09/28 04:25:35;;;;;;;123.32;88.80;;;;;;;25.88;44.31;95146.41;5000439;28;20057;-73
2021/09/28 04:28:00;;;;;;;124.00;89.20;;;;;;;25.96;43.98;95145.28;5004014;28;20564;-72
2021/09/28 04:30:25;;;;;;;177.60;109.22;;;;;;;26.03;44.24;95141.91;5004026;28;20037;-73
2021/09/28 04:32:51;;;;;;;158.70;102.85;;;;;;;26.10;43.87;95141.31;5004959;28;20036;-72
2021/09/28 04:35:17;;;;;;;164.85;105.47;;;;;;;26.18;44.20;95142.16;5002594;28;20216;-73
2021/09/28 04:37:43;;;;;;;96.38;75.85;;;;;;;26.18;43.99;95122.25;5000421;28;20029;-70
2021/09/28 04:40:09;;;;;;;81.38;68.57;;;;;;;26.34;43.40;95133.66;5005668;28;20026;-70
2021/09/28 04:42:34;;;;;;;79.22;66.10;;;;;;;26.38;43.25;95122.38;5007554;28;20034;-73
2021/09/28 04:45:00;;;;;;;85.18;70.13;;;;;;;26.46;43.91;95139.69;5003759;28;20400;-70
2021/09/28 04:47:25;;;;;;;74.55;63.42;;;;;;;26.56;43.33;95127.03;5005967;28;20691;-72
2021/09/28 04:49:50;;;;;;;171.90;107.53;;;;;;;26.64;43.23;95127.88;5006228;28;20018;-73
2021/09/28 04:52:16;;;;;;;106.35;80.97;;;;;;;26.66;43.49;95119.88;5006595;28;20486;-72
2021/09/28 04:54:42;;;;;;;180.13;110.18;;;;;;;26.78;42.62;95117.09;4996680;28;20537;-75
2021/09/28 04:57:07;;;;;;;73.63;63.53;;;;;;;26.91;42.23;95125.34;4988230;28;20018;-74
2021/09/28 04:59:33;;;;;;;62.78;55.97;;;;;;;27.00;42.05;95137.88;4986955;28;20394;-74
2021/09/28 05:01:58;;;;;;;68.80;59.55;;;;;;;26.94;42.02;95134.53;4987047;28;20049;-75
2021/09/28 05:04:24;;;;;;;61.58;54.88;;;;;;;26.84;42.15;95120.47;4987224;28;20089;-75
2021/09/28 05:06:49;;;;;;;55.92;50.33;;;;;;;26.81;41.97;95131.75;4987621;28;20057;-75
2021/09/28 05:09:15;;;;;;;74.97;64.10;;;;;;;26.84;42.02;95125.22;4990214;28;20022;-77
2021/09/28 05:11:40;;;;;;;65.47;56.50;;;;;;;26.86;42.15;95123.44;4990066;28;20034;-75
2021/09/28 05:14:06;;;;;;;49.35;44.55;;;;;;;26.73;42.78;95117.22;4991449;28;20037;-77
2021/09/28 05:16:31;;;;;;;46.85;42.10;;;;;;;26.67;42.86;95121.34;4990772;28;20015;-76
2021/09/28 05:18:57;;;;;;;47.20;42.55;;;;;;;26.57;43.36;95112.06;4988949;28;20045;-75
2021/09/28 05:21:23;;;;;;;54.20;48.67;;;;;;;26.55;43.16;95131.06;4993346;28;20544;-75
2021/09/28 05:23:49;;;;;;;48.78;43.92;;;;;;;26.57;42.88;95134.00;4996555;28;20034;-77
2021/09/28 05:26:14;;;;;;;61.70;55.08;;;;;;;26.53;43.26;95128.09;4993743;28;20030;-76
2021/09/28 05:28:40;;;;;;;48.30;43.63;;;;;;;26.54;43.52;95137.78;4990094;28;20099;-76
2021/09/28 05:31:05;;;;;;;50.35;45.35;;;;;;;26.51;43.39;95136.81;4991963;28;20034;-75
2021/09/28 05:33:31;;;;;;;101.47;73.60;;;;;;;26.48;43.51;95137.16;4993559;28;20121;-77
2021/09/28 05:35:56;;;;;;;11.40;8.57;;;;;;;26.37;43.39;95131.88;4991853;28;20049;-80
2021/09/28 05:38:22;;;;;;;8.00;6.40;;;;;;;26.40;44.18;95141.78;5010784;28;20036;-78
2021/09/28 05:40:47;;;;;;;8.32;6.38;;;;;;;26.33;44.80;95136.94;4997996;28;20308;-78
2021/09/28 05:43:13;;;;;;;10.25;4.82;;;;;;;26.26;44.98;95147.75;4990579;28;20025;-78
2021/09/28 05:45:38;;;;;;;7.45;5.45;;;;;;;26.15;44.68;95137.72;4990187;28;20033;-79
2021/09/28 05:48:04;;;;;;;10.05;6.18;;;;;;;26.24;45.21;95159.22;5007389;28;20423;-79
2021/09/28 05:50:30;;;;;;;9.20;5.68;;;;;;;26.27;45.46;95155.44;4996538;28;20095;-77
2021/09/28 05:52:57;;;;;;;9.38;5.78;;;;;;;26.17;45.81;95151.63;4996032;28;20033;-77
2021/09/28 05:55:23;;;;;;;10.90;5.63;;;;;;;26.14;45.86;95152.66;4992655;28;20108;-75
2021/09/28 05:57:48;;;;;;;10.00;6.50;;;;;;;26.04;46.08;95148.88;4990117;28;20697;-76
2021/09/28 06:00:17;;;;;;;10.10;6.82;;;;;;;25.95;46.29;95152.00;4996864;28;20038;-75
2021/09/28 06:02:42;;;;;;;10.27;7.35;;;;;;;25.93;46.39;95154.53;4995680;28;20062;-77
2021/09/28 06:05:08;;;;;;;8.30;5.60;;;;;;;25.89;47.03;95170.53;4989173;28;20033;-76
2021/09/28 06:07:34;;;;;;;10.95;6.00;;;;;;;25.92;46.09;95164.00;4992838;28;20046;-75
2021/09/28 06:09:59;;;;;;;10.38;6.00;;;;;;;25.94;46.56;95172.41;5006211;28;20026;-74
2021/09/28 06:12:25;;;;;;;8.35;5.45;;;;;;;25.88;47.38;95169.03;5022070;28;20040;-71
2021/09/28 06:14:50;;;;;;;12.75;5.80;;;;;;;25.97;47.19;95176.84;5008951;28;20030;-71
2021/09/28 06:17:16;;;;;;;10.70;5.72;;;;;;;26.03;46.38;95174.75;5007830;28;20040;-73
2021/09/28 06:19:41;;;;;;;9.65;5.53;;;;;;;26.21;46.55;95179.44;4996912;28;20514;-71
2021/09/28 06:22:07;;;;;;;14.32;6.78;;;;;;;26.24;46.13;95181.13;4998447;28;20026;-72
2021/09/28 06:24:33;;;;;;;10.07;5.03;;;;;;;26.24;45.77;95183.88;4998037;28;20030;-71
2021/09/28 06:27:07;;;;;;;9.77;5.20;;;;;;;26.38;45.41;95188.88;4993633;28;20044;-74
2021/09/28 06:29:32;;;;;;;7.85;4.68;;;;;;;26.38;45.27;95199.06;4996063;28;20038;-74
2021/09/28 06:31:58;;;;;;;7.07;4.80;;;;;;;26.35;45.30;95191.91;5020725;28;20029;-73
2021/09/28 06:34:24;;;;;;;9.20;4.70;;;;;;;26.35;45.07;95183.69;4999502;28;20591;-73
2021/09/28 06:36:49;;;;;;;9.75;5.03;;;;;;;26.28;45.08;95178.84;5004556;28;20014;-73
2021/09/28 06:39:14;;;;;;;8.55;4.47;;;;;;;26.34;45.20;95182.97;5005802;28;20026;-73
2021/09/28 06:41:40;;;;;;;7.13;4.68;;;;;;;26.36;45.14;95190.66;4992351;28;20026;-73
2021/09/28 06:44:05;;;;;;;9.82;4.40;;;;;;;26.34;44.99;95198.66;4993005;28;20042;-73
2021/09/28 06:46:38;;;;;;;7.85;4.70;;;;;;;26.30;44.77;95200.97;5001965;28;20052;-73
2021/09/28 06:49:17;;;;;;;7.00;5.05;;;;;;;26.34;44.93;95198.66;4999277;28;20037;-73
2021/09/28 06:51:43;;;;;;;7.47;4.80;;;;;;;26.33;44.74;95197.19;5016587;28;20117;-73
2021/09/28 06:54:12;;;;;;;6.65;4.20;;;;;;;26.30;44.74;95198.22;5004632;28;20265;-73
2021/09/28 06:56:43;;;;;;;7.32;4.35;;;;;;;26.31;44.85;95194.22;5005873;28;20030;-74
2021/09/28 06:59:10;;;;;;;5.78;4.95;;;;;;;26.26;44.67;95197.75;5004934;28;20535;-73
2021/09/28 07:01:39;;;;;;;7.32;4.57;;;;;;;26.18;44.68;95185.97;5002737;28;20539;-73
2021/09/28 07:04:04;;;;;;;8.73;4.82;;;;;;;26.20;44.61;95193.66;5020019;28;20038;-73
2021/09/28 07:06:30;;;;;;;5.93;4.32;;;;;;;26.19;44.81;95203.88;5003891;28;20037;-74
2021/09/28 07:08:55;;;;;;;6.90;4.28;;;;;;;26.07;44.90;95197.09;5006450;28;20551;-74
2021/09/28 07:11:21;;;;;;;6.55;4.22;;;;;;;26.11;44.76;95202.97;5004096;28;20017;-73
2021/09/28 07:13:47;;;;;;;7.60;4.72;;;;;;;26.09;44.93;95211.00;5005342;28;20599;-74
2021/09/28 07:16:13;;;;;;;7.43;4.43;;;;;;;26.06;44.76;95201.09;5004615;28;20071;-73
2021/09/28 07:18:38;;;;;;;6.90;4.05;;;;;;;26.07;44.77;95208.03;5006039;28;20030;-74
2021/09/28 07:21:04;;;;;;;7.50;4.53;;;;;;;26.06;44.64;95205.84;5006006;28;20048;-74
2021/09/28 07:23:30;;;;;;;5.85;4.00;;;;;;;26.00;44.90;95197.69;5000438;28;20034;-74
2021/09/28 07:25:55;;;;;;;6.18;4.65;;;;;;;26.05;44.60;95205.09;5000279;28;20041;-74
2021/09/28 07:28:20;;;;;;;7.55;4.05;;;;;;;26.01;44.62;95210.13;5021099;28;20022;-73
2021/09/28 07:30:46;;;;;;;7.30;4.15;;;;;;;25.99;44.79;95212.66;5007143;28;20038;-73
2021/09/28 07:33:12;;;;;;;5.10;4.00;;;;;;;25.97;44.77;95203.47;5006735;28;20065;-73
2021/09/28 07:35:37;;;;;;;7.40;4.38;;;;;;;25.92;44.60;95202.31;4989331;28;20036;-73
2021/09/28 07:38:02;;;;;;;7.63;4.47;;;;;;;26.00;44.54;95203.16;5002232;28;20034;-73
2021/09/28 07:40:28;;;;;;;7.70;4.05;;;;;;;25.89;44.64;95203.34;4987212;28;20030;-73
2021/09/28 07:42:53;;;;;;;6.30;4.07;;;;;;;25.97;44.77;95204.22;4987318;28;20034;-72
2021/09/28 07:45:19;;;;;;;6.57;4.28;;;;;;;25.95;44.60;95201.28;4985946;28;20018;-73
2021/09/28 07:47:44;;;;;;;8.20;4.13;;;;;;;25.96;44.53;95202.00;4987385;28;20030;-73
2021/09/28 07:50:10;;;;;;;7.68;4.03;;;;;;;25.94;44.70;95199.78;4987179;28;20499;-73
2021/09/28 07:52:36;;;;;;;6.78;4.32;;;;;;;25.86;44.44;95193.44;4986983;28;20018;-73
2021/09/28 07:55:01;;;;;;;5.60;4.07;;;;;;;25.90;44.55;95210.31;4986772;28;20049;-73
2021/09/28 07:57:27;;;;;;;8.15;4.80;;;;;;;25.95;44.41;95211.50;4996955;28;20077;-73
2021/09/28 07:59:54;;;;;;;7.00;4.18;;;;;;;25.90;44.12;95210.31;5006118;28;20072;-73
2021/09/28 08:02:20;;;;;;;7.53;4.13;;;;;;;25.92;44.36;95212.53;5002392;28;20034;-73
2021/09/28 08:04:48;;;;;;;6.00;4.03;;;;;;;25.94;44.29;95216.19;5005046;28;20037;-74
2021/09/28 08:07:17;;;;;;;8.60;4.30;;;;;;;25.95;44.37;95227.91;4986590;28;20501;-74
2021/09/28 08:09:43;;;;;;;6.60;3.90;;;;;;;25.90;44.09;95210.31;4985017;28;20041;-74
2021/09/28 08:12:09;;;;;;;6.50;4.22;;;;;;;25.89;44.42;95214.31;4986542;28;20500;-74
2021/09/28 08:14:34;;;;;;;6.68;4.45;;;;;;;25.94;44.33;95213.47;4987030;28;20034;-73
2021/09/28 08:17:00;;;;;;;5.22;3.90;;;;;;;25.97;44.72;95215.16;5006209;28;20022;-73
2021/09/28 08:19:25;;;;;;;8.10;4.50;;;;;;;25.96;44.43;95213.72;5005036;28;20480;-74
2021/09/28 08:21:51;;;;;;;6.85;4.40;;;;;;;25.94;44.60;95216.19;4988459;28;20025;-74
2021/09/28 08:24:17;;;;;;;6.00;4.35;;;;;;;25.94;44.37;95210.72;5006101;28;20040;-74
2021/09/28 08:29:27;;;;;;;7.13;4.35;;;;;;;25.93;44.34;95208.50;4999275;28;20041;-74
2021/09/28 08:31:52;;;;;;;7.15;3.92;;;;;;;25.93;44.42;95220.22;5001526;28;20026;-74
2021/09/28 08:34:19;;;;;;;7.30;4.35;;;;;;;25.95;44.24;95217.69;5002110;28;20033;-74
2021/09/28 08:36:47;;;;;;;7.50;4.30;;;;;;;25.95;44.39;95212.22;5005933;28;20026;-73
2021/09/28 08:39:15;;;;;;;7.63;5.28;;;;;;;25.93;44.25;95214.75;5005702;28;20061;-73
2021/09/28 08:41:40;;;;;;;7.07;4.20;;;;;;;25.92;44.14;95213.25;5006321;28;20049;-73
2021/09/28 08:44:06;;;;;;;7.07;4.20;;;;;;;25.95;43.95;95212.22;5006083;28;20472;-73
2021/09/28 08:46:31;;;;;;;6.85;4.30;;;;;;;25.88;44.13;95207.34;5005341;28;20026;-73
2021/09/28 08:48:57;;;;;;;6.13;3.95;;;;;;;25.79;44.62;95210.47;5005737;28;20030;-73
2021/09/28 08:51:22;;;;;;;7.75;4.15;;;;;;;25.98;44.24;95232.34;5008468;28;20562;-73
2021/09/28 08:53:50;;;;;;;6.05;3.92;;;;;;;25.94;44.42;95242.84;5010189;28;20034;-73
2021/09/28 08:56:16;;;;;;;5.95;3.95;;;;;;;25.96;44.28;95218.41;5008472;28;20056;-73
2021/09/28 08:59:15;;;;;;;6.80;4.57;;;;;;;25.95;44.17;95223.16;5008748;28;20496;-73
2021/09/28 09:01:57;;;;;;;6.38;4.00;;;;;;;25.94;44.17;95216.19;4949505;28;20116;-75
2021/09/28 09:04:25;;;;;;;6.68;4.05;;;;;;;25.85;44.17;95219.31;4998207;28;20523;-75
2021/09/28 09:06:50;;;;;;;5.85;3.88;;;;;;;25.97;44.50;95214.44;4999786;28;20572;-72
2021/09/28 09:09:16;;;;;;;5.93;3.88;;;;;;;25.99;44.34;95207.19;4996718;28;20032;-73
2021/09/28 09:11:45;;;;;;;6.85;3.90;;;;;;;26.00;44.42;95214.13;4992665;28;20025;-74
2021/09/28 09:14:21;;;;;;;6.28;4.25;;;;;;;26.08;44.42;95214.97;4990895;28;20442;-73
2021/09/28 09:16:52;;;;;;;7.68;4.63;;;;;;;26.09;44.32;95205.50;4991155;28;20518;-71
2021/09/28 09:19:28;;;;;;;8.18;4.32;;;;;;;26.18;44.39;95207.13;5004789;28;20064;-71
2021/09/28 09:22:01;;;;;;;6.78;4.15;;;;;;;26.28;44.14;95211.72;5008787;28;20026;-71
2021/09/28 09:24:46;;;;;;;9.68;4.57;;;;;;;26.38;43.97;95204.56;5007369;28;20022;-76
2021/09/28 09:27:13;;;;;;;6.50;4.13;;;;;;;26.40;43.87;95191.81;5008757;28;20038;-71
2021/09/28 09:29:39;;;;;;;6.93;4.32;;;;;;;26.59;43.55;95213.63;5006125;28;20113;-71
2021/09/28 09:32:05;;;;;;;8.77;4.30;;;;;;;26.70;43.63;95207.97;5007651;28;20076;-71
2021/09/28 09:34:30;;;;;;;6.88;3.92;;;;;;;26.80;43.36;95201.53;5008718;28;20712;-71
2021/09/28 09:37:07;;;;;;;6.40;4.30;;;;;;;26.90;43.20;95206.09;5007487;28;20014;-71
2021/09/28 09:39:48;;;;;;;7.07;4.30;;;;;;;27.03;42.93;95203.34;5008483;28;20017;-72
2021/09/28 09:42:13;;;;;;;8.80;4.15;;;;;;;27.11;43.02;95209.66;5008932;28;20029;-71
2021/09/28 09:44:41;;;;;;;7.30;4.00;;;;;;;27.24;42.55;95212.38;5001308;28;20026;-74
2021/09/28 09:47:07;;;;;;;7.28;4.50;;;;;;;27.36;42.48;95197.19;5004296;28;20068;-72
2021/09/28 09:49:35;;;;;;;6.70;4.15;;;;;;;27.38;42.59;95211.09;4990954;28;20046;-71
2021/09/28 09:52:11;;;;;;;7.60;4.57;;;;;;;27.51;41.99;95191.91;5011018;28;20504;-72
2021/09/28 09:54:41;;;;;;;8.13;4.47;;;;;;;27.54;42.00;95197.03;4990919;28;20018;-71
2021/09/28 09:57:08;;;;;;;7.55;4.30;;;;;;;27.58;42.02;95202.19;5005892;28;20010;-73
2021/09/28 09:59:34;;;;;;;6.55;4.30;;;;;;;27.66;41.82;95192.78;4988864;28;20564;-72
2021/09/28 10:01:59;;;;;;;6.65;4.53;;;;;;;27.69;42.11;95199.22;4986199;28;20535;-73
2021/09/28 10:04:25;;;;;;;7.18;4.63;;;;;;;27.77;42.02;95198.00;4991158;28;20037;-75
2021/09/28 10:06:51;;;;;;;8.30;4.95;;;;;;;27.84;41.42;95192.59;4992836;28;20064;-74
2021/09/28 10:09:38;;;;;;;7.68;4.80;;;;;;;27.90;41.77;95190.47;5007004;28;20049;-75
2021/09/28 10:12:05;;;;;;;6.25;3.90;;;;;;;27.95;41.27;95186.88;4990176;28;20022;-74
2021/09/28 10:14:40;;;;;;;8.02;4.63;;;;;;;27.99;40.82;95187.25;4995322;28;20029;-75
2021/09/28 10:17:21;;;;;;;6.63;4.30;;;;;;;28.04;41.40;95188.41;4988437;28;20018;-74
2021/09/28 10:19:51;;;;;;;7.97;4.53;;;;;;;27.96;41.20;95177.34;5007838;28;20100;-74
2021/09/28 10:22:52;;;;;;;6.90;4.47;;;;;;;28.01;41.33;95190.22;5006327;28;20052;-72
2021/09/28 10:25:20;;;;;;;8.85;4.30;;;;;;;28.12;40.89;95189.97;4986021;28;20497;-73
2021/09/28 10:28:04;;;;;;;7.50;4.47;;;;;;;28.14;40.58;95181.94;5007968;28;20034;-71
2021/09/28 10:30:33;;;;;;;5.53;4.20;;;;;;;28.21;41.13;95181.25;4996432;28;20030;-73
2021/09/28 10:33:11;;;;;;;7.53;4.47;;;;;;;28.26;40.42;95177.63;4991869;28;20063;-73
2021/09/28 10:35:52;;;;;;;8.55;4.70;;;;;;;28.30;40.37;95183.53;5003148;28;20093;-73
2021/09/28 10:38:18;;;;;;;6.05;4.13;;;;;;;28.39;40.56;95180.31;5018361;28;20029;-73
2021/09/28 10:40:47;;;;;;;6.93;4.20;;;;;;;28.41;40.45;95169.50;5004049;28;20060;-72
2021/09/28 10:43:29;;;;;;;6.93;4.55;;;;;;;28.45;40.29;95172.66;5002400;28;20026;-71
2021/09/28 10:45:57;;;;;;;5.57;4.47;;;;;;;28.48;39.96;95171.59;5000064;28;20590;-73
2021/09/28 10:48:28;;;;;;;8.15;4.50;;;;;;;28.52;39.83;95177.44;5006449;28;20053;-71
2021/09/28 10:51:13;;;;;;;8.88;5.32;;;;;;;28.45;40.23;95161.66;4991579;28;20049;-71
2021/09/28 10:53:51;;;;;;;6.03;4.60;;;;;;;28.58;40.59;95173.31;4991157;28;20129;-72
2021/09/28 10:56:17;;;;;;;8.43;5.03;;;;;;;28.59;39.80;95172.00;4987973;28;20014;-69
2021/09/28 10:58:52;;;;;;;7.68;5.15;;;;;;;28.60;39.74;95161.78;4987537;28;20469;-70
2021/09/28 11:01:18;;;;;;;8.27;5.22;;;;;;;28.66;39.83;95171.31;5000536;28;20531;-71
2021/09/28 11:03:51;;;;;;;9.15;4.57;;;;;;;28.68;39.78;95168.78;5004440;28;20600;-71
2021/09/28 11:06:17;;;;;;;8.75;5.72;;;;;;;28.67;40.21;95161.09;5020830;28;20519;-70
2021/09/28 11:08:42;;;;;;;8.27;5.22;;;;;;;28.67;39.97;95166.59;5004826;28;20021;-70
2021/09/28 11:11:09;;;;;;;8.98;4.90;;;;;;;28.66;40.11;95165.09;5002272;28;20026;-70
2021/09/28 11:13:39;;;;;;;9.18;5.78;;;;;;;28.65;40.20;95169.13;5002754;28;20032;-70
2021/09/28 11:16:06;;;;;;;10.43;5.97;;;;;;;28.63;39.48;95166.19;5006123;28;20117;-70
2021/09/28 11:18:32;;;;;;;8.40;5.50;;;;;;;28.52;40.04;95166.47;5006122;28;20041;-70
2021/09/28 11:21:10;;;;;;;9.30;5.65;;;;;;;28.54;39.93;95152.94;5005401;28;20026;-72
2021/09/28 11:23:36;;;;;;;7.65;5.70;;;;;;;28.52;39.78;95155.47;4997330;28;20136;-69
2021/09/28 11:26:01;;;;;;;9.73;5.90;;;;;;;28.46;40.40;95154.88;4993337;28;20536;-69
2021/09/28 11:28:27;;;;;;;8.65;6.10;;;;;;;28.39;40.36;95152.84;5006827;28;20025;-70
2021/09/28 11:30:57;;;;;;;8.15;5.90;;;;;;;28.29;40.68;95149.09;5004306;28;20030;-70
2021/09/28 11:33:23;;;;;;;9.45;5.65;;;;;;;28.24;40.25;95152.72;5005464;28;20053;-70